sensor_id;sensor_type;location;lat;lon;timestamp;P1;durP1;ratioP1;P2;durP2;ratioP2
50126;SDS011;36024;47.974;16.398;2022-08-19T00:01:58;7.97;;;3.50;;
50126;SDS011;36024;47.974;16.398;2022-08-19T00:04:32;6.57;;;3.08;;
50126;SDS011;36024;47.974;16.398;2022-08-19T00:07:03;6.13;;;3.42;;
50126;SDS011;36024;47.974;16.398;2022-08-19T00:09:31;6.63;;;3.00;;
50126;SDS011;36024;47.974;16.398;2022-08-19T00:11:58;8.93;;;3.40;;
50126;SDS011;36024;47.974;16.398;2022-08-19T00:14:25;7.57;;;3.10;;
50126;SDS011;36024;47.974;16.398;2022-08-19T00:16:52;7.47;;;2.83;;
50126;SDS011;36024;47.974;16.398;2022-08-19T00:19:21;9.18;;;3.53;;
50126;SDS011;36024;47.974;16.398;2022-08-19T00:21:49;7.35;;;3.15;;
50126;SDS011;36024;47.974;16.398;2022-08-19T00:24:16;7.32;;;3.25;;
50126;SDS011;36024;47.974;16.398;2022-08-19T00:26:43;6.70;;;3.35;;
50126;SDS011;36024;47.974;16.398;2022-08-19T00:29:12;6.45;;;3.30;;
50126;SDS011;36024;47.974;16.398;2022-08-19T00:31:40;11.80;;;3.63;;
50126;SDS011;36024;47.974;16.398;2022-08-19T00:34:09;8.43;;;3.40;;
50126;SDS011;36024;47.974;16.398;2022-08-19T00:36:38;6.97;;;3.10;;
50126;SDS011;36024;47.974;16.398;2022-08-19T00:39:05;7.22;;;2.90;;
50126;SDS011;36024;47.974;16.398;2022-08-19T00:41:33;10.40;;;3.33;;
50126;SDS011;36024;47.974;16.398;2022-08-19T00:44:02;5.68;;;2.80;;
50126;SDS011;36024;47.974;16.398;2022-08-19T00:46:37;7.03;;;2.90;;
50126;SDS011;36024;47.974;16.398;2022-08-19T00:49:06;5.78;;;3.08;;
50126;SDS011;36024;47.974;16.398;2022-08-19T00:51:38;8.02;;;3.35;;
50126;SDS011;36024;47.974;16.398;2022-08-19T00:54:05;6.10;;;3.17;;
50126;SDS011;36024;47.974;16.398;2022-08-19T00:56:32;8.88;;;3.40;;
50126;SDS011;36024;47.974;16.398;2022-08-19T00:58:59;7.50;;;2.90;;
50126;SDS011;36024;47.974;16.398;2022-08-19T01:01:26;8.48;;;3.30;;
50126;SDS011;36024;47.974;16.398;2022-08-19T01:03:52;6.03;;;3.00;;
50126;SDS011;36024;47.974;16.398;2022-08-19T01:06:24;9.07;;;3.30;;
50126;SDS011;36024;47.974;16.398;2022-08-19T01:08:51;10.55;;;3.40;;
50126;SDS011;36024;47.974;16.398;2022-08-19T01:11:19;8.27;;;3.58;;
50126;SDS011;36024;47.974;16.398;2022-08-19T01:13:46;6.30;;;3.35;;
50126;SDS011;36024;47.974;16.398;2022-08-19T01:16:16;8.10;;;2.95;;
50126;SDS011;36024;47.974;16.398;2022-08-19T01:18:43;8.50;;;3.30;;
50126;SDS011;36024;47.974;16.398;2022-08-19T01:24:03;8.73;;;2.90;;
50126;SDS011;36024;47.974;16.398;2022-08-19T01:26:30;6.28;;;3.03;;
50126;SDS011;36024;47.974;16.398;2022-08-19T01:28:58;10.93;;;3.00;;
50126;SDS011;36024;47.974;16.398;2022-08-19T01:31:30;8.80;;;3.08;;
50126;SDS011;36024;47.974;16.398;2022-08-19T01:33:58;9.63;;;3.15;;
50126;SDS011;36024;47.974;16.398;2022-08-19T01:36:28;7.05;;;2.92;;
50126;SDS011;36024;47.974;16.398;2022-08-19T01:38:56;8.07;;;2.90;;
50126;SDS011;36024;47.974;16.398;2022-08-19T01:41:24;7.50;;;3.17;;
50126;SDS011;36024;47.974;16.398;2022-08-19T01:43:51;7.05;;;2.72;;
50126;SDS011;36024;47.974;16.398;2022-08-19T01:46:38;5.93;;;2.95;;
50126;SDS011;36024;47.974;16.398;2022-08-19T01:49:05;5.63;;;3.00;;
50126;SDS011;36024;47.974;16.398;2022-08-19T01:51:32;10.07;;;3.47;;
50126;SDS011;36024;47.974;16.398;2022-08-19T01:54:06;5.68;;;2.90;;
50126;SDS011;36024;47.974;16.398;2022-08-19T01:56:34;5.00;;;3.05;;
50126;SDS011;36024;47.974;16.398;2022-08-19T01:59:02;8.48;;;3.60;;
50126;SDS011;36024;47.974;16.398;2022-08-19T02:01:32;9.05;;;3.33;;
50126;SDS011;36024;47.974;16.398;2022-08-19T02:04:01;6.38;;;2.80;;
50126;SDS011;36024;47.974;16.398;2022-08-19T02:06:28;6.30;;;3.10;;
50126;SDS011;36024;47.974;16.398;2022-08-19T02:08:55;7.72;;;3.00;;
50126;SDS011;36024;47.974;16.398;2022-08-19T02:11:30;7.60;;;3.00;;
50126;SDS011;36024;47.974;16.398;2022-08-19T02:13:58;8.50;;;3.03;;
50126;SDS011;36024;47.974;16.398;2022-08-19T02:16:24;8.50;;;3.25;;
50126;SDS011;36024;47.974;16.398;2022-08-19T02:18:51;6.20;;;3.42;;
50126;SDS011;36024;47.974;16.398;2022-08-19T02:21:18;6.80;;;3.20;;
50126;SDS011;36024;47.974;16.398;2022-08-19T02:23:46;7.80;;;3.00;;
50126;SDS011;36024;47.974;16.398;2022-08-19T02:26:13;8.35;;;3.13;;
50126;SDS011;36024;47.974;16.398;2022-08-19T02:28:41;7.88;;;3.55;;
50126;SDS011;36024;47.974;16.398;2022-08-19T02:31:09;10.38;;;3.08;;
50126;SDS011;36024;47.974;16.398;2022-08-19T02:33:37;8.68;;;3.08;;
50126;SDS011;36024;47.974;16.398;2022-08-19T02:36:04;7.57;;;3.25;;
50126;SDS011;36024;47.974;16.398;2022-08-19T02:38:32;7.07;;;2.90;;
50126;SDS011;36024;47.974;16.398;2022-08-19T02:41:00;7.70;;;3.15;;
50126;SDS011;36024;47.974;16.398;2022-08-19T02:43:29;8.15;;;3.38;;
50126;SDS011;36024;47.974;16.398;2022-08-19T02:45:59;8.00;;;3.00;;
50126;SDS011;36024;47.974;16.398;2022-08-19T02:48:26;5.30;;;2.78;;
50126;SDS011;36024;47.974;16.398;2022-08-19T02:50:53;5.70;;;3.08;;
50126;SDS011;36024;47.974;16.398;2022-08-19T02:53:23;8.23;;;3.72;;
50126;SDS011;36024;47.974;16.398;2022-08-19T02:55:51;5.40;;;3.38;;
50126;SDS011;36024;47.974;16.398;2022-08-19T02:58:18;10.75;;;3.35;;
50126;SDS011;36024;47.974;16.398;2022-08-19T03:00:47;5.17;;;3.27;;
50126;SDS011;36024;47.974;16.398;2022-08-19T03:03:16;9.30;;;3.70;;
50126;SDS011;36024;47.974;16.398;2022-08-19T03:05:43;8.15;;;3.00;;
50126;SDS011;36024;47.974;16.398;2022-08-19T03:08:21;5.13;;;3.00;;
50126;SDS011;36024;47.974;16.398;2022-08-19T03:10:48;6.13;;;3.22;;
50126;SDS011;36024;47.974;16.398;2022-08-19T03:13:15;4.90;;;3.13;;
50126;SDS011;36024;47.974;16.398;2022-08-19T03:15:44;7.97;;;3.60;;
50126;SDS011;36024;47.974;16.398;2022-08-19T03:18:13;7.17;;;3.07;;
50126;SDS011;36024;47.974;16.398;2022-08-19T03:20:47;8.38;;;3.45;;
50126;SDS011;36024;47.974;16.398;2022-08-19T03:23:16;7.27;;;3.40;;
50126;SDS011;36024;47.974;16.398;2022-08-19T03:25:45;8.50;;;3.30;;
50126;SDS011;36024;47.974;16.398;2022-08-19T03:28:28;6.13;;;3.03;;
50126;SDS011;36024;47.974;16.398;2022-08-19T03:30:59;11.00;;;3.60;;
50126;SDS011;36024;47.974;16.398;2022-08-19T03:33:29;6.10;;;3.58;;
50126;SDS011;36024;47.974;16.398;2022-08-19T03:36:01;7.23;;;3.30;;
50126;SDS011;36024;47.974;16.398;2022-08-19T03:38:35;6.47;;;3.07;;
50126;SDS011;36024;47.974;16.398;2022-08-19T03:41:07;7.90;;;3.20;;
50126;SDS011;36024;47.974;16.398;2022-08-19T03:43:36;5.23;;;3.00;;
50126;SDS011;36024;47.974;16.398;2022-08-19T03:46:05;6.60;;;3.40;;
50126;SDS011;36024;47.974;16.398;2022-08-19T03:48:36;8.27;;;3.43;;
50126;SDS011;36024;47.974;16.398;2022-08-19T03:51:05;6.28;;;2.92;;
50126;SDS011;36024;47.974;16.398;2022-08-19T03:53:32;7.57;;;3.10;;
50126;SDS011;36024;47.974;16.398;2022-08-19T03:56:00;5.03;;;2.97;;
50126;SDS011;36024;47.974;16.398;2022-08-19T03:58:27;8.33;;;3.23;;
50126;SDS011;36024;47.974;16.398;2022-08-19T04:00:55;8.57;;;3.30;;
50126;SDS011;36024;47.974;16.398;2022-08-19T04:03:25;7.00;;;3.30;;
50126;SDS011;36024;47.974;16.398;2022-08-19T04:05:53;9.20;;;3.33;;
50126;SDS011;36024;47.974;16.398;2022-08-19T04:08:19;7.43;;;2.80;;
50126;SDS011;36024;47.974;16.398;2022-08-19T04:10:48;7.55;;;3.13;;
50126;SDS011;36024;47.974;16.398;2022-08-19T04:13:16;5.53;;;3.10;;
50126;SDS011;36024;47.974;16.398;2022-08-19T04:15:45;8.00;;;3.37;;
50126;SDS011;36024;47.974;16.398;2022-08-19T04:18:13;7.60;;;2.67;;
50126;SDS011;36024;47.974;16.398;2022-08-19T04:20:40;7.85;;;3.20;;
50126;SDS011;36024;47.974;16.398;2022-08-19T04:23:11;10.35;;;3.15;;
50126;SDS011;36024;47.974;16.398;2022-08-19T04:25:40;7.87;;;3.40;;
50126;SDS011;36024;47.974;16.398;2022-08-19T04:28:09;7.30;;;3.85;;
50126;SDS011;36024;47.974;16.398;2022-08-19T04:30:39;10.45;;;3.75;;
50126;SDS011;36024;47.974;16.398;2022-08-19T04:33:14;11.10;;;3.80;;
50126;SDS011;36024;47.974;16.398;2022-08-19T04:35:51;9.40;;;3.78;;
50126;SDS011;36024;47.974;16.398;2022-08-19T04:38:19;6.90;;;3.10;;
50126;SDS011;36024;47.974;16.398;2022-08-19T04:40:49;7.47;;;3.45;;
50126;SDS011;36024;47.974;16.398;2022-08-19T04:43:36;8.43;;;3.10;;
50126;SDS011;36024;47.974;16.398;2022-08-19T04:46:10;7.43;;;3.10;;
50126;SDS011;36024;47.974;16.398;2022-08-19T04:48:59;7.78;;;3.20;;
50126;SDS011;36024;47.974;16.398;2022-08-19T04:51:35;8.82;;;2.97;;
50126;SDS011;36024;47.974;16.398;2022-08-19T04:54:03;5.07;;;2.92;;
50126;SDS011;36024;47.974;16.398;2022-08-19T04:56:30;8.25;;;3.38;;
50126;SDS011;36024;47.974;16.398;2022-08-19T04:58:56;7.20;;;3.20;;
50126;SDS011;36024;47.974;16.398;2022-08-19T05:01:24;7.75;;;3.20;;
50126;SDS011;36024;47.974;16.398;2022-08-19T05:03:55;8.07;;;3.10;;
50126;SDS011;36024;47.974;16.398;2022-08-19T05:06:23;7.43;;;3.20;;
50126;SDS011;36024;47.974;16.398;2022-08-19T05:08:50;6.20;;;3.10;;
50126;SDS011;36024;47.974;16.398;2022-08-19T05:11:24;9.32;;;3.38;;
50126;SDS011;36024;47.974;16.398;2022-08-19T05:13:52;7.20;;;3.30;;
50126;SDS011;36024;47.974;16.398;2022-08-19T05:16:19;8.30;;;3.35;;
50126;SDS011;36024;47.974;16.398;2022-08-19T05:18:47;8.25;;;3.60;;
50126;SDS011;36024;47.974;16.398;2022-08-19T05:21:32;7.82;;;3.45;;
50126;SDS011;36024;47.974;16.398;2022-08-19T05:24:19;9.50;;;3.45;;
50126;SDS011;36024;47.974;16.398;2022-08-19T05:26:47;10.05;;;3.45;;
50126;SDS011;36024;47.974;16.398;2022-08-19T05:29:15;10.30;;;3.53;;
50126;SDS011;36024;47.974;16.398;2022-08-19T05:31:48;9.23;;;3.50;;
50126;SDS011;36024;47.974;16.398;2022-08-19T05:34:18;13.43;;;3.70;;
50126;SDS011;36024;47.974;16.398;2022-08-19T05:36:48;10.52;;;4.07;;
50126;SDS011;36024;47.974;16.398;2022-08-19T05:39:18;11.57;;;3.72;;
50126;SDS011;36024;47.974;16.398;2022-08-19T05:41:46;7.28;;;3.30;;
50126;SDS011;36024;47.974;16.398;2022-08-19T05:44:16;10.98;;;4.10;;
50126;SDS011;36024;47.974;16.398;2022-08-19T05:46:43;12.63;;;3.78;;
50126;SDS011;36024;47.974;16.398;2022-08-19T05:49:13;13.25;;;4.35;;
50126;SDS011;36024;47.974;16.398;2022-08-19T05:51:42;10.60;;;3.80;;
50126;SDS011;36024;47.974;16.398;2022-08-19T05:54:09;9.10;;;3.38;;
50126;SDS011;36024;47.974;16.398;2022-08-19T05:56:37;7.75;;;3.58;;
50126;SDS011;36024;47.974;16.398;2022-08-19T05:59:05;8.77;;;4.03;;
50126;SDS011;36024;47.974;16.398;2022-08-19T06:01:36;8.02;;;3.90;;
50126;SDS011;36024;47.974;16.398;2022-08-19T06:04:04;13.45;;;4.10;;
50126;SDS011;36024;47.974;16.398;2022-08-19T06:06:31;9.65;;;4.10;;
50126;SDS011;36024;47.974;16.398;2022-08-19T06:09:00;13.68;;;3.90;;
50126;SDS011;36024;47.974;16.398;2022-08-19T06:11:45;12.52;;;4.03;;
50126;SDS011;36024;47.974;16.398;2022-08-19T06:14:22;12.15;;;3.95;;
50126;SDS011;36024;47.974;16.398;2022-08-19T06:16:53;13.18;;;4.07;;
50126;SDS011;36024;47.974;16.398;2022-08-19T06:19:21;8.68;;;3.95;;
50126;SDS011;36024;47.974;16.398;2022-08-19T06:21:48;13.80;;;4.43;;
50126;SDS011;36024;47.974;16.398;2022-08-19T06:24:24;11.43;;;4.32;;
50126;SDS011;36024;47.974;16.398;2022-08-19T06:26:52;10.43;;;4.47;;
50126;SDS011;36024;47.974;16.398;2022-08-19T06:29:26;7.18;;;4.40;;
50126;SDS011;36024;47.974;16.398;2022-08-19T06:31:55;10.52;;;4.82;;
50126;SDS011;36024;47.974;16.398;2022-08-19T06:34:23;9.43;;;4.57;;
50126;SDS011;36024;47.974;16.398;2022-08-19T06:36:51;8.60;;;4.70;;
50126;SDS011;36024;47.974;16.398;2022-08-19T06:39:20;9.98;;;4.50;;
50126;SDS011;36024;47.974;16.398;2022-08-19T06:41:52;9.43;;;4.32;;
50126;SDS011;36024;47.974;16.398;2022-08-19T06:44:26;10.88;;;4.90;;
50126;SDS011;36024;47.974;16.398;2022-08-19T06:46:57;8.55;;;4.30;;
50126;SDS011;36024;47.974;16.398;2022-08-19T06:49:24;8.85;;;4.85;;
50126;SDS011;36024;47.974;16.398;2022-08-19T06:51:58;6.88;;;4.65;;
50126;SDS011;36024;47.974;16.398;2022-08-19T06:54:27;7.30;;;4.68;;
50126;SDS011;36024;47.974;16.398;2022-08-19T06:56:57;10.02;;;4.43;;
50126;SDS011;36024;47.974;16.398;2022-08-19T06:59:24;8.77;;;4.10;;
50126;SDS011;36024;47.974;16.398;2022-08-19T07:01:55;6.57;;;4.10;;
50126;SDS011;36024;47.974;16.398;2022-08-19T07:04:24;8.23;;;4.07;;
50126;SDS011;36024;47.974;16.398;2022-08-19T07:07:07;7.88;;;4.20;;
50126;SDS011;36024;47.974;16.398;2022-08-19T07:09:47;7.88;;;4.30;;
50126;SDS011;36024;47.974;16.398;2022-08-19T07:12:25;8.30;;;4.80;;
50126;SDS011;36024;47.974;16.398;2022-08-19T07:14:56;10.15;;;4.32;;
50126;SDS011;36024;47.974;16.398;2022-08-19T07:17:24;7.78;;;4.22;;
50126;SDS011;36024;47.974;16.398;2022-08-19T07:19:51;6.20;;;4.45;;
50126;SDS011;36024;47.974;16.398;2022-08-19T07:22:20;9.35;;;4.80;;
50126;SDS011;36024;47.974;16.398;2022-08-19T07:24:50;6.45;;;4.63;;
50126;SDS011;36024;47.974;16.398;2022-08-19T07:27:18;8.68;;;4.20;;
50126;SDS011;36024;47.974;16.398;2022-08-19T07:29:50;7.63;;;4.60;;
50126;SDS011;36024;47.974;16.398;2022-08-19T07:32:23;5.97;;;4.25;;
50126;SDS011;36024;47.974;16.398;2022-08-19T07:34:52;9.20;;;4.63;;
50126;SDS011;36024;47.974;16.398;2022-08-19T07:37:19;11.32;;;4.90;;
50126;SDS011;36024;47.974;16.398;2022-08-19T07:39:45;5.57;;;4.47;;
50126;SDS011;36024;47.974;16.398;2022-08-19T07:42:12;7.38;;;4.80;;
50126;SDS011;36024;47.974;16.398;2022-08-19T07:44:40;7.13;;;4.78;;
50126;SDS011;36024;47.974;16.398;2022-08-19T07:47:16;6.47;;;4.68;;
50126;SDS011;36024;47.974;16.398;2022-08-19T07:50:05;8.38;;;4.63;;
50126;SDS011;36024;47.974;16.398;2022-08-19T07:52:34;8.00;;;4.68;;
50126;SDS011;36024;47.974;16.398;2022-08-19T07:55:02;8.05;;;4.85;;
50126;SDS011;36024;47.974;16.398;2022-08-19T07:57:30;7.57;;;4.68;;
50126;SDS011;36024;47.974;16.398;2022-08-19T07:59:57;9.90;;;4.95;;
50126;SDS011;36024;47.974;16.398;2022-08-19T08:02:23;7.80;;;4.60;;
50126;SDS011;36024;47.974;16.398;2022-08-19T08:04:50;8.48;;;5.00;;
50126;SDS011;36024;47.974;16.398;2022-08-19T08:07:35;7.68;;;5.03;;
50126;SDS011;36024;47.974;16.398;2022-08-19T08:10:20;8.70;;;5.00;;
50126;SDS011;36024;47.974;16.398;2022-08-19T08:12:49;7.55;;;4.97;;
50126;SDS011;36024;47.974;16.398;2022-08-19T08:15:36;8.85;;;5.15;;
50126;SDS011;36024;47.974;16.398;2022-08-19T08:18:09;9.23;;;4.60;;
50126;SDS011;36024;47.974;16.398;2022-08-19T08:20:36;10.18;;;4.80;;
50126;SDS011;36024;47.974;16.398;2022-08-19T08:23:03;6.28;;;4.72;;
50126;SDS011;36024;47.974;16.398;2022-08-19T08:25:48;8.35;;;4.72;;
50126;SDS011;36024;47.974;16.398;2022-08-19T08:28:16;10.65;;;4.93;;
50126;SDS011;36024;47.974;16.398;2022-08-19T08:30:43;9.55;;;4.75;;
50126;SDS011;36024;47.974;16.398;2022-08-19T08:33:12;7.60;;;4.80;;
50126;SDS011;36024;47.974;16.398;2022-08-19T08:35:45;9.10;;;4.70;;
50126;SDS011;36024;47.974;16.398;2022-08-19T08:38:12;9.82;;;4.78;;
50126;SDS011;36024;47.974;16.398;2022-08-19T08:40:43;7.22;;;4.75;;
50126;SDS011;36024;47.974;16.398;2022-08-19T08:48:40;7.30;;;4.47;;
50126;SDS011;36024;47.974;16.398;2022-08-19T08:51:25;10.27;;;4.50;;
50126;SDS011;36024;47.974;16.398;2022-08-19T08:54:01;7.68;;;4.70;;
50126;SDS011;36024;47.974;16.398;2022-08-19T08:56:37;7.85;;;4.35;;
50126;SDS011;36024;47.974;16.398;2022-08-19T08:59:21;7.65;;;4.82;;
50126;SDS011;36024;47.974;16.398;2022-08-19T09:01:52;6.35;;;4.70;;
50126;SDS011;36024;47.974;16.398;2022-08-19T09:04:19;7.05;;;4.35;;
50126;SDS011;36024;47.974;16.398;2022-08-19T09:10:02;6.90;;;5.07;;
50126;SDS011;36024;47.974;16.398;2022-08-19T09:15:32;6.50;;;4.72;;
50126;SDS011;36024;47.974;16.398;2022-08-19T09:18:05;6.50;;;4.32;;
50126;SDS011;36024;47.974;16.398;2022-08-19T09:20:32;8.30;;;4.68;;
50126;SDS011;36024;47.974;16.398;2022-08-19T09:22:59;5.25;;;4.45;;
50126;SDS011;36024;47.974;16.398;2022-08-19T09:25:26;7.78;;;4.75;;
50126;SDS011;36024;47.974;16.398;2022-08-19T09:27:55;7.72;;;4.57;;
50126;SDS011;36024;47.974;16.398;2022-08-19T09:30:32;7.35;;;4.50;;
50126;SDS011;36024;47.974;16.398;2022-08-19T09:33:00;6.15;;;4.47;;
50126;SDS011;36024;47.974;16.398;2022-08-19T09:35:28;7.18;;;3.85;;
50126;SDS011;36024;47.974;16.398;2022-08-19T09:37:56;6.25;;;4.30;;
50126;SDS011;36024;47.974;16.398;2022-08-19T09:40:26;6.18;;;3.95;;
50126;SDS011;36024;47.974;16.398;2022-08-19T09:42:56;5.10;;;4.28;;
50126;SDS011;36024;47.974;16.398;2022-08-19T09:45:23;7.40;;;4.57;;
50126;SDS011;36024;47.974;16.398;2022-08-19T09:47:51;5.97;;;4.47;;
50126;SDS011;36024;47.974;16.398;2022-08-19T09:50:20;7.35;;;4.18;;
50126;SDS011;36024;47.974;16.398;2022-08-19T09:52:47;7.55;;;4.65;;
50126;SDS011;36024;47.974;16.398;2022-08-19T09:55:23;9.48;;;4.80;;
50126;SDS011;36024;47.974;16.398;2022-08-19T09:57:56;7.55;;;4.35;;
50126;SDS011;36024;47.974;16.398;2022-08-19T10:00:23;5.97;;;4.60;;
50126;SDS011;36024;47.974;16.398;2022-08-19T10:02:49;8.45;;;4.55;;
50126;SDS011;36024;47.974;16.398;2022-08-19T10:05:18;5.95;;;4.55;;
50126;SDS011;36024;47.974;16.398;2022-08-19T10:08:07;6.53;;;4.15;;
50126;SDS011;36024;47.974;16.398;2022-08-19T10:10:40;8.75;;;4.72;;
50126;SDS011;36024;47.974;16.398;2022-08-19T10:13:12;6.53;;;4.07;;
50126;SDS011;36024;47.974;16.398;2022-08-19T10:15:40;4.50;;;3.67;;
50126;SDS011;36024;47.974;16.398;2022-08-19T10:18:14;9.70;;;4.35;;
50126;SDS011;36024;47.974;16.398;2022-08-19T10:20:45;5.57;;;4.70;;
50126;SDS011;36024;47.974;16.398;2022-08-19T10:23:17;7.15;;;4.28;;
50126;SDS011;36024;47.974;16.398;2022-08-19T10:25:46;7.63;;;4.00;;
50126;SDS011;36024;47.974;16.398;2022-08-19T10:28:14;5.82;;;4.35;;
50126;SDS011;36024;47.974;16.398;2022-08-19T10:30:40;8.43;;;4.63;;
50126;SDS011;36024;47.974;16.398;2022-08-19T10:33:08;6.50;;;4.28;;
50126;SDS011;36024;47.974;16.398;2022-08-19T10:35:36;6.85;;;4.50;;
50126;SDS011;36024;47.974;16.398;2022-08-19T10:38:22;10.00;;;4.55;;
50126;SDS011;36024;47.974;16.398;2022-08-19T10:40:57;7.50;;;4.20;;
50126;SDS011;36024;47.974;16.398;2022-08-19T10:43:24;8.18;;;4.28;;
50126;SDS011;36024;47.974;16.398;2022-08-19T10:45:52;9.63;;;4.38;;
50126;SDS011;36024;47.974;16.398;2022-08-19T10:48:21;8.90;;;4.20;;
50126;SDS011;36024;47.974;16.398;2022-08-19T10:50:48;10.02;;;4.53;;
50126;SDS011;36024;47.974;16.398;2022-08-19T10:53:33;27.08;;;6.40;;
50126;SDS011;36024;47.974;16.398;2022-08-19T10:56:01;13.70;;;4.22;;
50126;SDS011;36024;47.974;16.398;2022-08-19T10:58:46;9.35;;;3.50;;
50126;SDS011;36024;47.974;16.398;2022-08-19T11:01:13;10.60;;;3.67;;
50126;SDS011;36024;47.974;16.398;2022-08-19T11:03:40;11.25;;;3.45;;
50126;SDS011;36024;47.974;16.398;2022-08-19T11:06:07;7.97;;;3.53;;
50126;SDS011;36024;47.974;16.398;2022-08-19T11:08:35;9.80;;;3.60;;
50126;SDS011;36024;47.974;16.398;2022-08-19T11:11:04;9.93;;;3.78;;
50126;SDS011;36024;47.974;16.398;2022-08-19T11:13:32;9.05;;;3.92;;
50126;SDS011;36024;47.974;16.398;2022-08-19T11:16:05;10.32;;;3.83;;
50126;SDS011;36024;47.974;16.398;2022-08-19T11:18:37;8.77;;;3.83;;
50126;SDS011;36024;47.974;16.398;2022-08-19T11:23:48;10.23;;;4.38;;
50126;SDS011;36024;47.974;16.398;2022-08-19T11:26:17;10.55;;;4.32;;
50126;SDS011;36024;47.974;16.398;2022-08-19T11:28:45;10.55;;;3.75;;
50126;SDS011;36024;47.974;16.398;2022-08-19T11:31:12;9.48;;;4.50;;
50126;SDS011;36024;47.974;16.398;2022-08-19T11:33:41;13.77;;;4.47;;
50126;SDS011;36024;47.974;16.398;2022-08-19T11:36:13;11.48;;;4.18;;
50126;SDS011;36024;47.974;16.398;2022-08-19T11:38:41;12.45;;;4.05;;
50126;SDS011;36024;47.974;16.398;2022-08-19T11:41:07;12.40;;;4.45;;
50126;SDS011;36024;47.974;16.398;2022-08-19T11:43:34;12.27;;;4.90;;
50126;SDS011;36024;47.974;16.398;2022-08-19T11:46:10;9.43;;;4.20;;
50126;SDS011;36024;47.974;16.398;2022-08-19T11:48:38;9.07;;;4.05;;
50126;SDS011;36024;47.974;16.398;2022-08-19T11:51:06;10.02;;;4.10;;
50126;SDS011;36024;47.974;16.398;2022-08-19T11:53:35;8.20;;;4.15;;
50126;SDS011;36024;47.974;16.398;2022-08-19T11:56:02;11.57;;;4.63;;
50126;SDS011;36024;47.974;16.398;2022-08-19T11:58:30;10.25;;;4.60;;
50126;SDS011;36024;47.974;16.398;2022-08-19T12:00:56;10.80;;;4.75;;
50126;SDS011;36024;47.974;16.398;2022-08-19T12:03:23;9.38;;;4.55;;
50126;SDS011;36024;47.974;16.398;2022-08-19T12:05:50;10.77;;;4.63;;
50126;SDS011;36024;47.974;16.398;2022-08-19T12:08:17;8.55;;;4.65;;
50126;SDS011;36024;47.974;16.398;2022-08-19T12:10:44;7.93;;;4.32;;
50126;SDS011;36024;47.974;16.398;2022-08-19T12:13:11;9.23;;;4.30;;
50126;SDS011;36024;47.974;16.398;2022-08-19T12:15:45;9.65;;;4.72;;
50126;SDS011;36024;47.974;16.398;2022-08-19T12:18:13;9.35;;;4.40;;
50126;SDS011;36024;47.974;16.398;2022-08-19T12:20:41;9.50;;;4.65;;
50126;SDS011;36024;47.974;16.398;2022-08-19T12:23:08;8.88;;;4.32;;
50126;SDS011;36024;47.974;16.398;2022-08-19T12:25:36;9.77;;;4.57;;
50126;SDS011;36024;47.974;16.398;2022-08-19T12:28:03;8.82;;;4.07;;
50126;SDS011;36024;47.974;16.398;2022-08-19T12:30:30;9.82;;;4.18;;
50126;SDS011;36024;47.974;16.398;2022-08-19T12:32:57;9.52;;;4.20;;
50126;SDS011;36024;47.974;16.398;2022-08-19T12:35:23;9.23;;;4.53;;
50126;SDS011;36024;47.974;16.398;2022-08-19T12:37:50;11.15;;;4.75;;
50126;SDS011;36024;47.974;16.398;2022-08-19T12:40:22;11.82;;;4.47;;
50126;SDS011;36024;47.974;16.398;2022-08-19T12:42:51;9.48;;;4.28;;
50126;SDS011;36024;47.974;16.398;2022-08-19T12:45:19;10.15;;;4.20;;
50126;SDS011;36024;47.974;16.398;2022-08-19T12:47:46;10.18;;;4.18;;
50126;SDS011;36024;47.974;16.398;2022-08-19T12:50:15;8.50;;;4.00;;
50126;SDS011;36024;47.974;16.398;2022-08-19T12:52:42;9.32;;;4.38;;
50126;SDS011;36024;47.974;16.398;2022-08-19T12:55:09;7.80;;;4.43;;
50126;SDS011;36024;47.974;16.398;2022-08-19T12:57:37;9.30;;;4.30;;
50126;SDS011;36024;47.974;16.398;2022-08-19T13:00:08;11.75;;;4.70;;
50126;SDS011;36024;47.974;16.398;2022-08-19T13:02:38;12.23;;;4.68;;
50126;SDS011;36024;47.974;16.398;2022-08-19T13:05:07;16.98;;;5.60;;
50126;SDS011;36024;47.974;16.398;2022-08-19T13:07:37;14.40;;;5.28;;
50126;SDS011;36024;47.974;16.398;2022-08-19T13:10:08;13.25;;;5.20;;
50126;SDS011;36024;47.974;16.398;2022-08-19T13:12:37;13.82;;;5.40;;
50126;SDS011;36024;47.974;16.398;2022-08-19T13:15:05;10.02;;;4.90;;
50126;SDS011;36024;47.974;16.398;2022-08-19T13:17:36;9.73;;;4.80;;
50126;SDS011;36024;47.974;16.398;2022-08-19T13:20:04;9.27;;;4.63;;
50126;SDS011;36024;47.974;16.398;2022-08-19T13:22:34;10.65;;;4.47;;
50126;SDS011;36024;47.974;16.398;2022-08-19T13:25:03;8.60;;;4.82;;
50126;SDS011;36024;47.974;16.398;2022-08-19T13:27:31;10.32;;;4.28;;
50126;SDS011;36024;47.974;16.398;2022-08-19T13:29:58;10.63;;;4.53;;
50126;SDS011;36024;47.974;16.398;2022-08-19T13:32:44;12.93;;;4.07;;
50126;SDS011;36024;47.974;16.398;2022-08-19T13:35:29;8.13;;;4.05;;
50126;SDS011;36024;47.974;16.398;2022-08-19T13:37:56;11.65;;;3.90;;
50126;SDS011;36024;47.974;16.398;2022-08-19T13:40:23;7.60;;;3.70;;
50126;SDS011;36024;47.974;16.398;2022-08-19T13:42:53;8.90;;;4.10;;
50126;SDS011;36024;47.974;16.398;2022-08-19T13:45:21;10.05;;;3.85;;
50126;SDS011;36024;47.974;16.398;2022-08-19T13:47:51;10.40;;;3.97;;
50126;SDS011;36024;47.974;16.398;2022-08-19T13:50:26;12.25;;;3.58;;
50126;SDS011;36024;47.974;16.398;2022-08-19T13:52:54;10.10;;;4.18;;
50126;SDS011;36024;47.974;16.398;2022-08-19T13:55:22;11.10;;;4.00;;
50126;SDS011;36024;47.974;16.398;2022-08-19T13:57:51;8.90;;;4.00;;
50126;SDS011;36024;47.974;16.398;2022-08-19T14:00:19;11.35;;;4.05;;
50126;SDS011;36024;47.974;16.398;2022-08-19T14:02:47;8.93;;;4.15;;
50126;SDS011;36024;47.974;16.398;2022-08-19T14:05:17;11.75;;;3.80;;
50126;SDS011;36024;47.974;16.398;2022-08-19T14:07:45;10.02;;;4.30;;
50126;SDS011;36024;47.974;16.398;2022-08-19T14:10:12;10.98;;;4.03;;
50126;SDS011;36024;47.974;16.398;2022-08-19T14:12:39;11.75;;;4.07;;
50126;SDS011;36024;47.974;16.398;2022-08-19T14:15:07;9.05;;;4.05;;
50126;SDS011;36024;47.974;16.398;2022-08-19T14:17:37;11.00;;;3.92;;
50126;SDS011;36024;47.974;16.398;2022-08-19T14:20:06;6.05;;;3.20;;
50126;SDS011;36024;47.974;16.398;2022-08-19T14:22:42;6.32;;;3.00;;
50126;SDS011;36024;47.974;16.398;2022-08-19T14:25:11;6.38;;;3.00;;
50126;SDS011;36024;47.974;16.398;2022-08-19T14:27:41;6.93;;;3.15;;
50126;SDS011;36024;47.974;16.398;2022-08-19T14:30:11;9.02;;;3.15;;
50126;SDS011;36024;47.974;16.398;2022-08-19T14:32:40;7.90;;;2.88;;
50126;SDS011;36024;47.974;16.398;2022-08-19T14:35:10;6.55;;;2.88;;
50126;SDS011;36024;47.974;16.398;2022-08-19T14:37:38;8.00;;;2.67;;
50126;SDS011;36024;47.974;16.398;2022-08-19T14:40:12;7.35;;;2.63;;
50126;SDS011;36024;47.974;16.398;2022-08-19T14:42:40;8.40;;;2.85;;
50126;SDS011;36024;47.974;16.398;2022-08-19T14:45:08;6.70;;;2.67;;
50126;SDS011;36024;47.974;16.398;2022-08-19T14:47:36;7.47;;;2.83;;
50126;SDS011;36024;47.974;16.398;2022-08-19T14:50:09;7.00;;;2.65;;
50126;SDS011;36024;47.974;16.398;2022-08-19T14:52:47;5.43;;;2.38;;
50126;SDS011;36024;47.974;16.398;2022-08-19T14:55:14;6.15;;;2.60;;
50126;SDS011;36024;47.974;16.398;2022-08-19T14:57:42;6.38;;;2.47;;
50126;SDS011;36024;47.974;16.398;2022-08-19T15:00:10;5.82;;;2.50;;
50126;SDS011;36024;47.974;16.398;2022-08-19T15:02:42;6.65;;;2.28;;
50126;SDS011;36024;47.974;16.398;2022-08-19T15:05:12;5.85;;;2.58;;